Time;durP1;ratioP1;P1;durP2;ratioP2;P2;SDS_P1;SDS_P2;PMS_P1;PMS_P2;Temp;Humidity;BMP_temperature;BMP_pressure;BME280_temperature;BME280_humidity;BME280_pressure;Samples;Min_cycle;Max_cycle;Signal;HPM_P1;HPM_P2
2024/04/13 00:01:50;;;;;;;7.28;4.65;;;25.10;47.90;;;;;;6580851;26;78997;-57
2024/04/13 00:04:50;;;;;;;8.80;4.45;;;25.10;47.80;;;;;;6581711;26;80176;-58
2024/04/13 00:07:51;;;;;;;9.48;4.60;;;25.10;47.80;;;;;;6580735;26;78641;-56
2024/04/13 00:10:51;;;;;;;9.55;5.05;;;25.10;47.80;;;;;;6582322;26;79861;-63
2024/04/13 00:13:52;;;;;;;7.45;4.75;;;25.10;47.80;;;;;;6583301;26;79151;-62
2024/04/13 00:16:52;;;;;;;8.68;4.70;;;25.10;47.80;;;;;;6581401;26;79431;-62
2024/04/13 00:19:53;;;;;;;8.60;5.55;;;25.10;47.70;;;;;;6581688;26;79300;-62
2024/04/13 00:22:55;;;;;;;9.35;4.90;;;25.10;47.80;;;;;;6581929;26;79336;-62
2024/04/13 00:25:56;;;;;;;7.30;5.03;;;25.10;47.70;;;;;;6581476;26;78902;-61
2024/04/13 00:28:58;;;;;;;8.82;4.85;;;25.10;48.40;;;;;;6580599;26;82320;-49
2024/04/13 00:31:59;;;;;;;9.75;5.20;;;25.10;47.70;;;;;;6580160;26;78563;-52
2024/04/13 00:34:59;;;;;;;9.27;5.78;;;25.10;47.70;;;;;;6580869;26;80603;-51
2024/04/13 00:38:02;;;;;;;7.85;5.18;;;25.00;47.50;;;;;;6583041;26;79147;-52
2024/04/13 00:41:02;;;;;;;8.25;4.43;;;25.10;47.50;;;;;;6581482;26;78996;-50
2024/04/13 00:44:03;;;;;;;7.47;4.78;;;25.00;47.50;;;;;;6580444;26;79791;-50
2024/04/13 00:47:06;;;;;;;9.20;4.95;;;25.10;47.50;;;;;;6581903;26;79635;-48
2024/04/13 00:50:13;;;;;;;8.65;5.28;;;25.10;47.50;;;;;;6569668;26;79160;-48
2024/04/13 00:53:14;;;;;;;8.95;4.85;;;25.10;47.50;;;;;;6580386;26;80881;-54
2024/04/13 00:56:14;;;;;;;8.23;5.43;;;25.10;47.40;;;;;;6596379;26;79249;-49
2024/04/13 00:59:15;;;;;;;8.10;5.18;;;25.10;47.30;;;;;;6587750;26;79817;-48
2024/04/13 01:02:16;;;;;;;10.13;5.60;;;25.00;47.30;;;;;;6580640;26;80814;-50
2024/04/13 01:05:18;;;;;;;8.80;4.80;;;25.00;47.30;;;;;;6581341;26;78902;-49
2024/04/13 01:08:20;;;;;;;9.95;4.95;;;25.00;47.30;;;;;;6580767;26;78684;-48
2024/04/13 01:11:21;;;;;;;9.18;5.18;;;25.00;47.30;;;;;;6582718;26;81302;-54
2024/04/13 01:14:21;;;;;;;10.02;5.00;;;25.00;47.40;;;;;;6582475;26;83355;-51
2024/04/13 01:17:22;;;;;;;8.48;4.97;;;25.00;47.30;;;;;;6580081;26;81961;-49
2024/04/13 01:20:22;;;;;;;8.40;5.15;;;25.00;47.40;;;;;;6582292;26;79856;-50
2024/04/13 01:23:23;;;;;;;8.35;5.05;;;25.00;47.50;;;;;;6581212;26;80195;-50
2024/04/13 01:26:23;;;;;;;9.55;4.93;;;25.00;47.50;;;;;;6582452;26;81496;-58
2024/04/13 01:29:24;;;;;;;9.15;5.03;;;25.00;47.30;;;;;;6604497;26;80250;-58
2024/04/13 01:32:24;;;;;;;7.53;4.88;;;25.00;47.30;;;;;;6580824;26;80333;-57
2024/04/13 01:35:25;;;;;;;10.27;5.30;;;25.00;47.40;;;;;;6581122;26;79863;-57
2024/04/13 01:38:25;;;;;;;8.18;5.05;;;25.00;47.30;;;;;;6579982;26;79247;-58
2024/04/13 01:41:26;;;;;;;7.32;5.13;;;25.00;47.30;;;;;;6579592;26;83242;-58
2024/04/13 01:44:27;;;;;;;10.50;5.38;;;25.00;47.50;;;;;;6580513;26;78995;-58
2024/04/13 01:47:27;;;;;;;9.15;5.57;;;25.00;47.30;;;;;;6581585;26;78703;-58
2024/04/13 01:50:28;;;;;;;9.77;4.72;;;25.00;47.40;;;;;;6580669;26;79589;-59
2024/04/13 01:53:28;;;;;;;8.98;5.80;;;25.00;47.40;;;;;;6580098;26;78982;-58
2024/04/13 01:56:29;;;;;;;9.52;5.43;;;25.00;47.40;;;;;;6591196;26;79682;-58
2024/04/13 01:59:29;;;;;;;10.52;5.60;;;25.00;47.50;;;;;;6589530;26;78798;-58
2024/04/13 02:02:30;;;;;;;7.85;4.40;;;25.00;47.50;;;;;;6583336;26;79572;-61
2024/04/13 02:05:31;;;;;;;9.35;5.15;;;25.00;47.60;;;;;;6582417;26;79007;-61
2024/04/13 02:08:32;;;;;;;8.48;5.07;;;25.00;47.70;;;;;;6580939;26;79401;-60
2024/04/13 02:11:33;;;;;;;10.85;5.63;;;25.00;47.70;;;;;;6581425;26;78893;-61
2024/04/13 02:14:33;;;;;;;9.18;5.22;;;25.00;47.80;;;;;;6588571;26;80740;-61
2024/04/13 02:17:34;;;;;;;8.55;5.50;;;24.90;47.70;;;;;;6616813;26;79583;-63
2024/04/13 02:20:34;;;;;;;10.93;5.38;;;25.00;47.70;;;;;;6580017;26;78788;-62
2024/04/13 02:23:35;;;;;;;12.48;6.00;;;24.90;47.70;;;;;;6580357;26;79527;-61
2024/04/13 02:26:36;;;;;;;9.35;5.57;;;25.00;47.70;;;;;;6580317;26;79426;-61
2024/04/13 02:29:38;;;;;;;9.85;5.78;;;25.00;47.70;;;;;;6579583;26;79005;-60
2024/04/13 02:32:39;;;;;;;10.50;6.13;;;24.90;47.60;;;;;;6577869;26;79549;-61
2024/04/13 02:35:40;;;;;;;9.48;5.63;;;24.90;47.70;;;;;;6578110;26;79020;-60
2024/04/13 02:38:41;;;;;;;10.18;6.15;;;24.90;47.90;;;;;;6580558;26;79088;-60
2024/04/13 02:41:42;;;;;;;12.10;6.88;;;24.90;47.90;;;;;;6581195;26;78798;-61
2024/04/13 02:44:42;;;;;;;10.30;5.85;;;24.90;47.80;;;;;;6579936;26;78899;-62
2024/04/13 02:47:43;;;;;;;7.90;5.80;;;24.90;47.90;;;;;;6602178;26;80026;-62
2024/04/13 02:50:43;;;;;;;8.70;5.95;;;24.80;47.80;;;;;;6621978;26;78759;-60
2024/04/13 02:53:47;;;;;;;12.30;5.93;;;24.80;47.90;;;;;;6608065;26;84051;-61
2024/04/13 02:56:48;;;;;;;11.15;6.05;;;24.90;47.70;;;;;;6590840;26;78945;-58
2024/04/13 02:59:48;;;;;;;10.95;6.20;;;24.90;47.80;;;;;;6583601;26;80135;-58
2024/04/13 03:02:49;;;;;;;12.40;5.20;;;24.90;47.70;;;;;;6581302;26;80229;-58
2024/04/13 03:05:49;;;;;;;8.55;5.70;;;24.90;47.90;;;;;;6581721;26;78887;-58
2024/04/13 03:08:50;;;;;;;8.90;5.80;;;24.90;48.50;;;;;;6582938;26;79102;-58
2024/04/13 03:11:50;;;;;;;9.75;5.50;;;24.90;47.90;;;;;;6583047;26;78794;-58
2024/04/13 03:14:51;;;;;;;9.88;5.32;;;24.90;48.00;;;;;;6604856;26;78918;-62
2024/04/13 03:17:51;;;;;;;7.97;5.03;;;24.90;47.90;;;;;;6582523;26;81512;-60
2024/04/13 03:20:52;;;;;;;10.30;5.35;;;24.90;47.90;;;;;;6582699;26;79268;-59
2024/04/13 03:23:53;;;;;;;6.50;4.55;;;24.90;48.00;;;;;;6582182;26;79397;-59
2024/04/13 03:26:53;;;;;;;11.48;5.55;;;24.90;48.10;;;;;;6582545;26;79410;-60
2024/04/13 03:29:54;;;;;;;9.65;5.38;;;24.90;48.30;;;;;;6606205;26;86209;-60
2024/04/13 03:32:54;;;;;;;9.52;5.20;;;24.90;48.00;;;;;;6585320;26;79079;-58
2024/04/13 03:35:55;;;;;;;8.77;4.55;;;24.90;48.00;;;;;;6582920;26;79124;-57
2024/04/13 03:38:59;;;;;;;10.02;5.38;;;24.90;48.00;;;;;;6594550;26;81873;-57
2024/04/13 03:41:59;;;;;;;8.30;4.82;;;25.00;48.10;;;;;;6593593;26;80956;-54
2024/04/13 03:45:00;;;;;;;7.82;4.68;;;25.00;48.00;;;;;;6583136;26;78846;-57
2024/04/13 03:48:00;;;;;;;7.60;5.00;;;25.00;48.00;;;;;;6580000;26;83626;-57
2024/04/13 03:51:01;;;;;;;8.48;5.53;;;25.00;48.00;;;;;;6582664;26;80114;-60
2024/04/13 03:54:02;;;;;;;9.13;5.05;;;25.00;48.00;;;;;;6582176;26;79618;-63
2024/04/13 03:57:02;;;;;;;7.50;4.38;;;25.00;47.80;;;;;;6581410;26;82106;-64
2024/04/13 04:00:06;;;;;;;10.50;5.50;;;25.00;47.90;;;;;;6585804;26;80558;-64
2024/04/13 04:03:12;;;;;;;10.18;5.40;;;25.00;47.90;;;;;;6557120;26;79481;-63
2024/04/13 04:06:12;;;;;;;7.75;5.78;;;25.00;47.90;;;;;;6564509;26;90012;-63
2024/04/13 04:09:14;;;;;;;9.02;5.55;;;25.00;47.90;;;;;;6572486;26;79261;-65
2024/04/13 04:12:14;;;;;;;12.85;5.40;;;24.90;47.80;;;;;;6575420;26;83914;-63
2024/04/13 04:15:15;;;;;;;8.40;5.20;;;24.90;47.70;;;;;;6581612;26;80773;-62
2024/04/13 04:18:15;;;;;;;9.00;5.95;;;24.90;47.50;;;;;;6580857;26;80246;-62
2024/04/13 04:21:16;;;;;;;9.02;5.30;;;24.90;47.60;;;;;;6581507;26;85215;-61
2024/04/13 04:24:17;;;;;;;11.82;5.47;;;24.90;47.40;;;;;;6581517;26;78847;-61
2024/04/13 04:27:19;;;;;;;11.13;5.20;;;24.90;47.30;;;;;;6578468;26;79375;-62
2024/04/13 04:30:20;;;;;;;13.10;5.80;;;24.80;47.40;;;;;;6578301;26;80868;-61
2024/04/13 04:33:20;;;;;;;11.63;5.88;;;24.80;47.40;;;;;;6587730;26;78683;-63
2024/04/13 04:36:21;;;;;;;13.02;6.13;;;24.90;47.40;;;;;;6581338;26;79409;-62
2024/04/13 04:39:21;;;;;;;10.00;5.13;;;24.90;47.40;;;;;;6582029;26;78697;-72
2024/04/13 04:42:24;;;;;;;11.30;5.25;;;24.80;47.40;;;;;;6581781;26;79383;-69
2024/04/13 04:45:25;;;;;;;10.30;5.78;;;24.90;47.50;;;;;;6578617;26;82025;-66
2024/04/13 04:48:25;;;;;;;9.93;5.30;;;24.80;47.60;;;;;;6581892;26;79529;-68
2024/04/13 04:51:26;;;;;;;16.95;6.78;;;24.80;47.60;;;;;;6578360;26;79189;-71
2024/04/13 04:54:26;;;;;;;12.48;5.40;;;24.80;47.80;;;;;;6580095;26;79996;-69
2024/04/13 04:57:26;;;;;;;10.50;5.05;;;24.80;47.80;;;;;;6579018;26;79238;-63
2024/04/13 05:00:27;;;;;;;7.57;4.82;;;24.80;47.90;;;;;;6552098;26;86756;-65
2024/04/13 05:03:27;;;;;;;7.95;5.13;;;24.80;48.00;;;;;;6576710;26;79010;-65
2024/04/13 05:06:28;;;;;;;12.25;5.93;;;24.90;48.10;;;;;;6575926;26;78938;-63
2024/04/13 05:09:29;;;;;;;10.10;4.97;;;24.90;48.30;;;;;;6574105;26;79505;-63
2024/04/13 05:12:29;;;;;;;11.07;4.75;;;24.90;48.20;;;;;;6577787;26;86324;-65
2024/04/13 05:15:30;;;;;;;9.57;4.05;;;25.00;48.20;;;;;;6502581;26;86821;-60
2024/04/13 05:18:30;;;;;;;14.13;5.15;;;25.00;48.10;;;;;;6575881;26;80809;-57
2024/04/13 05:21:31;;;;;;;11.23;5.13;;;25.00;48.30;;;;;;6578611;26;78965;-60
2024/04/13 05:24:31;;;;;;;11.48;4.55;;;25.10;48.70;;;;;;6584805;26;79038;-59
2024/04/13 05:27:32;;;;;;;9.65;4.55;;;25.00;48.70;;;;;;6580404;26;79907;-60
2024/04/13 05:30:35;;;;;;;11.27;4.63;;;25.00;48.60;;;;;;6570976;26;83119;-60
2024/04/13 05:33:36;;;;;;;10.90;5.10;;;25.10;48.90;;;;;;6564605;26;80208;-59
2024/04/13 05:36:36;;;;;;;14.63;4.50;;;25.10;49.30;;;;;;6571159;26;79209;-58
2024/04/13 05:39:37;;;;;;;7.88;4.45;;;25.10;49.30;;;;;;6572848;26;79246;-58
2024/04/13 05:42:38;;;;;;;9.23;4.55;;;25.10;49.60;;;;;;6551791;26;80162;-58
2024/04/13 05:45:38;;;;;;;13.25;4.80;;;25.10;50.10;;;;;;6557971;26;85320;-57
2024/04/13 05:48:39;;;;;;;7.63;4.68;;;25.20;50.10;;;;;;6569590;26;80624;-57
2024/04/13 05:51:40;;;;;;;11.73;5.13;;;25.20;50.40;;;;;;6575405;26;80212;-58
2024/04/13 05:54:41;;;;;;;9.25;4.63;;;25.30;50.60;;;;;;6580926;26;78985;-57
2024/04/13 05:57:42;;;;;;;7.88;4.53;;;25.30;50.90;;;;;;6572906;26;79014;-54
2024/04/13 06:00:43;;;;;;;10.18;3.90;;;25.40;50.70;;;;;;6581732;26;79401;-54
2024/04/13 06:03:43;;;;;;;12.68;4.63;;;25.30;50.10;;;;;;6571728;26;80188;-61
2024/04/13 06:06:44;;;;;;;10.07;4.47;;;25.40;51.30;;;;;;6543506;26;79901;-55
2024/04/13 06:09:44;;;;;;;9.25;4.70;;;25.40;50.80;;;;;;6561577;26;83881;-59
2024/04/13 06:12:46;;;;;;;9.23;4.68;;;25.40;51.00;;;;;;6571015;26;79353;-60
2024/04/13 06:15:46;;;;;;;10.43;4.53;;;25.40;51.00;;;;;;6564491;26;83020;-57
2024/04/13 06:18:47;;;;;;;10.30;4.00;;;25.40;51.20;;;;;;6562414;26;80305;-59
2024/04/13 06:21:47;;;;;;;10.18;4.70;;;25.50;51.10;;;;;;6545816;26;86990;-58
2024/04/13 06:24:48;;;;;;;9.88;4.20;;;25.50;51.20;;;;;;6551573;26;83676;-59
2024/04/13 06:27:49;;;;;;;7.57;3.88;;;25.50;51.10;;;;;;6569070;26;79000;-59
2024/04/13 06:30:50;;;;;;;8.30;4.13;;;25.50;51.80;;;;;;6574978;26;79969;-58
2024/04/13 06:33:51;;;;;;;12.25;4.60;;;25.60;51.40;;;;;;6570754;26;84276;-57
2024/04/13 06:36:51;;;;;;;10.10;4.88;;;25.60;51.40;;;;;;6558525;26;86459;-58
2024/04/13 06:39:52;;;;;;;11.02;4.53;;;25.60;51.40;;;;;;6563707;26;84369;-59
2024/04/13 06:42:52;;;;;;;10.90;4.70;;;25.60;51.50;;;;;;6578593;26;79250;-59
2024/04/13 06:45:53;;;;;;;7.93;4.30;;;25.70;51.50;;;;;;6572371;26;85802;-61
2024/04/13 06:48:53;;;;;;;10.32;4.10;;;25.70;51.60;;;;;;6583261;26;79257;-63
2024/04/13 06:51:54;;;;;;;8.02;4.22;;;25.70;51.50;;;;;;6578430;26;80362;-62
2024/04/13 06:54:54;;;;;;;10.82;4.50;;;25.70;51.40;;;;;;6575632;26;81109;-63
2024/04/13 06:57:55;;;;;;;12.43;4.63;;;25.70;51.40;;;;;;6581107;26;79411;-63
2024/04/13 07:00:55;;;;;;;10.55;5.13;;;25.70;51.50;;;;;;6555622;26;79872;-62
2024/04/13 07:03:56;;;;;;;8.20;4.72;;;25.70;51.60;;;;;;6580487;26;87307;-72
2024/04/13 07:06:57;;;;;;;13.38;5.25;;;25.70;51.50;;;;;;6570510;26;87493;-69
2024/04/13 07:09:57;;;;;;;14.93;4.82;;;25.80;51.50;;;;;;6581718;26;79078;-70
2024/04/13 07:12:58;;;;;;;11.60;4.85;;;25.90;51.30;;;;;;6598382;26;79179;-67
2024/04/13 07:15:59;;;;;;;12.13;4.63;;;25.80;51.10;;;;;;6587755;26;80038;-65
2024/04/13 07:18:59;;;;;;;8.48;4.35;;;25.90;51.10;;;;;;6569583;26;80669;-65
2024/04/13 07:22:00;;;;;;;11.68;4.72;;;25.80;51.10;;;;;;6590049;26;82565;-70
2024/04/13 07:25:00;;;;;;;9.60;4.32;;;25.80;51.10;;;;;;6608740;26;79238;-67
2024/04/13 07:28:01;;;;;;;10.32;5.13;;;25.90;51.00;;;;;;6590085;26;80095;-68
2024/04/13 07:31:01;;;;;;;12.75;4.78;;;25.80;51.00;;;;;;6573903;26;81703;-66
2024/04/13 07:34:02;;;;;;;22.65;5.07;;;25.80;50.90;;;;;;6586115;26;79334;-67
2024/04/13 07:37:02;;;;;;;10.95;5.22;;;25.80;50.30;;;;;;6582518;26;82206;-70
2024/04/13 07:40:03;;;;;;;16.67;4.63;;;25.80;47.70;;;;;;6617086;26;84394;-69
2024/04/13 07:43:03;;;;;;;12.57;4.57;;;25.70;49.10;;;;;;6622976;26;79204;-65
2024/04/13 07:46:04;;;;;;;13.93;4.05;;;25.70;49.60;;;;;;6638444;26;79250;-69
2024/04/13 07:49:04;;;;;;;11.95;4.25;;;25.80;49.80;;;;;;6613804;26;79753;-67
2024/04/13 07:52:05;;;;;;;9.65;4.10;;;25.80;49.80;;;;;;6610527;26;80142;-64
2024/04/13 07:55:06;;;;;;;13.43;4.63;;;25.90;49.90;;;;;;6606349;26;82202;-64
2024/04/13 07:58:07;;;;;;;13.73;4.65;;;25.90;50.70;;;;;;6575892;26;79825;-65
2024/04/13 08:01:07;;;;;;;10.32;3.92;;;25.90;50.10;;;;;;6587107;26;80598;-70
2024/04/13 08:04:08;;;;;;;14.05;4.47;;;25.90;50.40;;;;;;6593806;26;80415;-71
2024/04/13 08:07:08;;;;;;;10.88;4.50;;;26.00;50.40;;;;;;6602310;26;79337;-69
2024/04/13 08:10:09;;;;;;;15.65;4.60;;;26.00;50.50;;;;;;6565653;26;83129;-73
2024/04/13 08:13:10;;;;;;;14.45;4.82;;;26.00;50.60;;;;;;6551441;26;83858;-72
2024/04/13 08:16:10;;;;;;;8.80;4.28;;;26.10;50.70;;;;;;6580812;26;78965;-70
2024/04/13 08:19:11;;;;;;;10.65;4.35;;;26.10;50.70;;;;;;6588242;26;80379;-61
2024/04/13 08:22:11;;;;;;;17.27;4.30;;;26.10;50.70;;;;;;6602928;26;79550;-60
2024/04/13 08:25:12;;;;;;;14.35;4.93;;;26.10;50.50;;;;;;6591190;26;78971;-59
2024/04/13 08:28:12;;;;;;;9.02;4.43;;;26.20;50.40;;;;;;6603630;26;80170;-60
2024/04/13 08:31:13;;;;;;;12.23;4.38;;;26.20;50.30;;;;;;6601327;26;78631;-59
2024/04/13 08:34:13;;;;;;;8.70;5.00;;;26.20;50.30;;;;;;6596604;26;80031;-60
2024/04/13 08:37:14;;;;;;;17.33;5.63;;;26.00;49.40;;;;;;6597711;26;80104;-60
2024/04/13 08:40:14;;;;;;;19.20;6.00;;;26.00;49.40;;;;;;6592540;26;80479;-59
2024/04/13 08:43:15;;;;;;;10.35;5.35;;;26.00;49.30;;;;;;6590957;26;80474;-63
2024/04/13 08:46:15;;;;;;;12.18;4.97;;;25.90;48.70;;;;;;6591272;26;81402;-63
2024/04/13 08:49:16;;;;;;;14.93;6.03;;;25.80;48.90;;;;;;6604045;26;78877;-66
2024/04/13 08:52:16;;;;;;;8.60;5.15;;;25.70;48.60;;;;;;6599187;26;79322;-63
2024/04/13 08:55:17;;;;;;;6.68;4.47;;;25.70;48.10;;;;;;6588913;26;79414;-59
2024/04/13 08:58:17;;;;;;;10.90;5.05;;;25.70;48.50;;;;;;6595291;26;80019;-60
2024/04/13 09:01:18;;;;;;;8.60;4.57;;;25.70;48.30;;;;;;6583222;26;79350;-57
2024/04/13 09:04:18;;;;;;;12.98;5.80;;;25.80;48.30;;;;;;6581883;26;80336;-60
2024/04/13 09:07:19;;;;;;;13.48;4.53;;;25.80;48.20;;;;;;6582221;26;86724;-60
2024/04/13 09:10:19;;;;;;;9.45;4.80;;;25.70;48.40;;;;;;6592550;26;81418;-60
2024/04/13 09:13:20;;;;;;;8.65;4.38;;;25.70;48.40;;;;;;6582243;26;78910;-59
2024/04/13 09:16:20;;;;;;;11.00;4.70;;;25.70;48.50;;;;;;6596647;26;80102;-63
2024/04/13 09:19:21;;;;;;;6.53;3.67;;;25.80;48.60;;;;;;6591772;26;80144;-60
2024/04/13 09:22:22;;;;;;;11.75;4.03;;;25.80;48.50;;;;;;6588914;26;78598;-58
2024/04/13 09:25:23;;;;;;;13.02;5.18;;;25.80;48.60;;;;;;6582147;26;79097;-60
2024/04/13 09:28:23;;;;;;;8.25;4.10;;;25.80;48.30;;;;;;6570106;26;80146;-60
2024/04/13 09:31:24;;;;;;;9.90;3.92;;;25.80;48.70;;;;;;6582859;26;79657;-62
2024/04/13 09:34:25;;;;;;;8.55;3.60;;;25.90;48.80;;;;;;6568339;26;80255;-59
2024/04/13 09:37:25;;;;;;;8.95;4.55;;;26.00;48.80;;;;;;6585318;26;80142;-62
2024/04/13 09:40:26;;;;;;;11.43;5.15;;;26.10;48.00;;;;;;6585106;26;79773;-59
2024/04/13 09:43:26;;;;;;;7.82;4.55;;;26.10;48.10;;;;;;6563587;26;78941;-61
2024/04/13 09:46:27;;;;;;;13.70;5.00;;;25.90;48.00;;;;;;6585003;26;82498;-60
2024/04/13 09:49:27;;;;;;;15.02;4.13;;;25.90;48.20;;;;;;6585046;26;79265;-60
2024/04/13 09:52:28;;;;;;;27.00;5.70;;;26.00;48.10;;;;;;6584846;26;80385;-72
2024/04/13 09:55:28;;;;;;;11.95;4.20;;;26.00;47.60;;;;;;6574226;26;79987;-64
2024/04/13 09:58:29;;;;;;;9.85;4.55;;;26.00;47.80;;;;;;6574344;26;79958;-60
2024/04/13 10:01:29;;;;;;;9.38;4.38;;;26.00;47.80;;;;;;6579718;26;79692;-61
2024/04/13 10:04:30;;;;;;;8.50;4.22;;;26.00;47.60;;;;;;6583750;26;78912;-62
2024/04/13 10:07:30;;;;;;;15.30;4.35;;;25.90;47.70;;;;;;6607472;26;81499;-61
2024/04/13 10:10:31;;;;;;;15.63;4.15;;;26.00;48.30;;;;;;6621311;26;80239;-62
2024/04/13 10:13:31;;;;;;;12.38;4.13;;;25.90;48.20;;;;;;6600977;26;78959;-63
2024/04/13 10:16:32;;;;;;;15.80;4.60;;;25.90;48.50;;;;;;6560189;26;89834;-61
2024/04/13 10:19:33;;;;;;;12.02;3.95;;;25.90;48.90;;;;;;6583476;26;81201;-63
2024/04/13 10:22:33;;;;;;;10.55;3.80;;;25.80;48.10;;;;;;6576476;26;80380;-63
2024/04/13 10:25:34;;;;;;;12.52;5.10;;;25.80;48.30;;;;;;6518678;26;84919;-62
2024/04/13 10:28:34;;;;;;;8.13;3.42;;;25.70;48.00;;;;;;6520134;26;81265;-63
2024/04/13 10:31:35;;;;;;;11.00;3.92;;;25.70;48.10;;;;;;6557780;26;80015;-62
2024/04/13 10:34:36;;;;;;;6.70;3.45;;;25.70;47.80;;;;;;6556301;26;80436;-62
2024/04/13 10:37:36;;;;;;;11.45;3.50;;;25.70;47.80;;;;;;6558634;26;81444;-62
2024/04/13 10:40:37;;;;;;;6.15;3.25;;;25.60;48.00;;;;;;6552167;26;81413;-62
2024/04/13 10:43:37;;;;;;;19.63;3.45;;;25.70;47.90;;;;;;6562551;26;79581;-63
2024/04/13 10:46:38;;;;;;;8.98;3.15;;;25.70;47.60;;;;;;6555981;26;80060;-61
2024/04/13 10:49:38;;;;;;;9.52;2.97;;;25.70;47.80;;;;;;6547495;26;80497;-62
2024/04/13 10:52:39;;;;;;;7.28;2.88;;;25.70;48.00;;;;;;6558720;26;80202;-62
2024/04/13 10:55:39;;;;;;;10.40;3.05;;;25.70;47.70;;;;;;6559040;26;80419;-62
2024/04/13 10:58:40;;;;;;;11.30;3.30;;;25.80;48.00;;;;;;6533476;26;80274;-62
2024/04/13 11:01:40;;;;;;;12.25;3.08;;;25.70;47.50;;;;;;6557580;26;80900;-62
2024/04/13 11:04:41;;;;;;;9.45;2.63;;;25.70;47.70;;;;;;6552509;26;79811;-60
2024/04/13 11:07:41;;;;;;;10.88;4.10;;;25.70;48.10;;;;;;6554728;26;82241;-60
2024/04/13 11:10:45;;;;;;;13.48;3.67;;;25.90;48.50;;;;;;6560110;26;80836;-61
2024/04/13 11:13:45;;;;;;;13.35;4.13;;;25.90;48.10;;;;;;6558828;26;81181;-61
2024/04/13 11:16:46;;;;;;;19.13;5.93;;;26.00;48.30;;;;;;6561413;26;80211;-61
2024/04/13 11:19:46;;;;;;;29.58;9.07;;;26.10;49.10;;;;;;6548846;26;80628;-62
2024/04/13 11:22:47;;;;;;;33.83;8.68;;;26.10;49.70;;;;;;6558569;26;80493;-61
2024/04/13 11:25:47;;;;;;;32.67;5.63;;;26.10;49.50;;;;;;6558683;26;80483;-62
2024/04/13 11:28:48;;;;;;;69.00;8.07;;;25.90;47.90;;;;;;6532936;26;80465;-62
2024/04/13 11:31:49;;;;;;;32.17;4.38;;;25.90;48.20;;;;;;6546482;26;80727;-60
2024/04/13 11:34:49;;;;;;;38.30;4.60;;;25.80;47.80;;;;;;6554019;26;88125;-51
2024/04/13 11:37:50;;;;;;;15.35;3.15;;;25.50;48.10;;;;;;6590431;26;78879;-60
2024/04/13 11:40:50;;;;;;;12.80;3.33;;;25.50;48.40;;;;;;6596572;26;79068;-60
2024/04/13 11:43:51;;;;;;;11.90;2.53;;;25.70;48.60;;;;;;6581692;26;86027;-61
2024/04/13 11:46:52;;;;;;;6.90;2.38;;;25.80;48.60;;;;;;6569617;26;79263;-59
2024/04/13 11:49:52;;;;;;;8.38;2.58;;;25.90;48.80;;;;;;6574906;26;79175;-60
2024/04/13 11:52:53;;;;;;;11.18;2.67;;;26.00;48.40;;;;;;6602762;26;79318;-60
2024/04/13 11:55:54;;;;;;;6.88;2.40;;;26.10;48.40;;;;;;6604800;26;79924;-60
2024/04/13 11:58:56;;;;;;;7.55;2.70;;;26.10;47.80;;;;;;6570502;26;79696;-60
2024/04/13 12:01:56;;;;;;;6.88;2.83;;;26.00;47.70;;;;;;6610097;26;79373;-59
2024/04/13 12:04:57;;;;;;;6.45;3.40;;;26.00;47.60;;;;;;6594103;26;79436;-60
2024/04/13 12:07:57;;;;;;;4.95;2.28;;;26.00;47.90;;;;;;6617961;26;78688;-61
2024/04/13 12:10:58;;;;;;;5.93;2.35;;;26.10;48.20;;;;;;6604017;26;84386;-60
2024/04/13 12:13:58;;;;;;;5.75;2.20;;;26.10;48.20;;;;;;6591519;26;79712;-60
2024/04/13 12:16:59;;;;;;;8.05;3.00;;;26.10;47.60;;;;;;6572250;26;82729;-61
2024/04/13 12:20:00;;;;;;;13.35;2.40;;;26.20;47.60;;;;;;6595209;26;79302;-62
2024/04/13 12:23:01;;;;;;;5.70;2.55;;;26.20;47.50;;;;;;6598246;26;79138;-60
2024/04/13 12:26:02;;;;;;;11.43;2.33;;;26.10;47.20;;;;;;6587523;26;84273;-60
2024/04/13 12:29:02;;;;;;;11.23;2.50;;;25.90;46.70;;;;;;6578173;26;81756;-60
2024/04/13 12:32:03;;;;;;;7.28;2.00;;;25.90;47.10;;;;;;6545652;26;81053;-59
2024/04/13 12:35:07;;;;;;;6.60;2.20;;;26.00;47.30;;;;;;6584133;26;78949;-60
2024/04/13 12:38:08;;;;;;;9.50;2.90;;;26.00;47.10;;;;;;6579983;26;79176;-61
2024/04/13 12:41:10;;;;;;;2.72;1.85;;;26.00;46.90;;;;;;6604168;26;79282;-60
2024/04/13 12:44:10;;;;;;;8.68;2.65;;;26.00;46.60;;;;;;6614123;26;80475;-60
2024/04/13 12:47:14;;;;;;;4.22;1.83;;;26.00;46.60;;;;;;6570746;26;78998;-66
2024/04/13 12:50:14;;;;;;;6.85;2.22;;;26.10;45.90;;;;;;6586430;26;84126;-61
2024/04/13 12:53:15;;;;;;;6.35;2.28;;;26.10;46.70;;;;;;6603042;26;80456;-59
2024/04/13 12:56:15;;;;;;;8.73;2.17;;;26.10;46.70;;;;;;6576623;26;83076;-60
2024/04/13 12:59:16;;;;;;;5.57;2.13;;;26.10;46.80;;;;;;6574231;26;83678;-64
2024/04/13 13:02:16;;;;;;;4.15;2.10;;;26.20;46.70;;;;;;6625780;26;78778;-62
2024/04/13 13:05:17;;;;;;;4.78;2.58;;;26.20;46.90;;;;;;6597781;26;79214;-60
2024/04/13 13:08:17;;;;;;;6.20;2.17;;;26.20;46.60;;;;;;6613325;26;79155;-66
2024/04/13 13:11:18;;;;;;;4.75;2.05;;;26.20;46.10;;;;;;6602592;26;80132;-61
2024/04/13 13:14:20;;;;;;;4.68;2.28;;;26.20;46.30;;;;;;6581121;26;79035;-60
2024/04/13 13:17:21;;;;;;;5.43;2.35;;;26.20;46.00;;;;;;6584795;26;79388;-61
2024/04/13 13:20:21;;;;;;;7.57;2.35;;;26.20;45.90;;;;;;6572702;26;80172;-60
2024/04/13 13:23:21;;;;;;;4.85;1.88;;;26.20;46.00;;;;;;6586399;26;80000;-59
2024/04/13 13:26:22;;;;;;;6.85;2.58;;;26.20;45.70;;;;;;6586733;26;80094;-60
2024/04/13 13:29:23;;;;;;;3.65;1.75;;;26.20;45.30;;;;;;6598726;26;78944;-60
2024/04/13 13:32:24;;;;;;;2.95;1.50;;;26.10;45.10;;;;;;6585271;26;79687;-62
2024/04/13 13:35:25;;;;;;;34.80;4.10;;;26.20;45.40;;;;;;6543706;26;80893;-65
2024/04/13 13:38:26;;;;;;;30.95;3.47;;;26.00;44.30;;;;;;6584200;26;79209;-61
2024/04/13 13:41:30;;;;;;;20.33;2.78;;;26.00;44.80;;;;;;6581273;26;81898;-61
2024/04/13 13:44:31;;;;;;;15.10;2.45;;;26.10;45.50;;;;;;6564508;26;79070;-61
2024/04/13 13:47:32;;;;;;;4.18;2.05;;;26.10;45.80;;;;;;6585437;26;78975;-61
2024/04/13 13:50:32;;;;;;;5.47;1.98;;;26.00;44.90;;;;;;6552412;26;79050;-61
2024/04/13 13:53:33;;;;;;;6.85;2.03;;;26.10;46.10;;;;;;6586856;26;79279;-61
2024/04/13 13:56:34;;;;;;;5.65;2.00;;;26.20;45.90;;;;;;6587132;26;79132;-61
2024/04/13 13:59:34;;;;;;;2.25;1.50;;;26.10;45.20;;;;;;6582739;26;80194;-63
2024/04/13 14:02:35;;;;;;;3.72;1.95;;;26.10;46.20;;;;;;6581877;26;79966;-62
2024/04/13 14:05:35;;;;;;;6.05;2.38;;;26.20;46.00;;;;;;6598123;26;78968;-61
2024/04/13 14:08:36;;;;;;;7.75;1.55;;;26.10;46.20;;;;;;6624922;26;81067;-62
2024/04/13 14:11:36;;;;;;;4.13;2.10;;;26.20;45.30;;;;;;6624793;26;81817;-61
2024/04/13 14:14:37;;;;;;;3.28;1.70;;;26.10;45.20;;;;;;6615382;26;79600;-62
2024/04/13 14:17:37;;;;;;;8.38;2.28;;;26.10;45.40;;;;;;6578729;26;78891;-61
2024/04/13 14:20:38;;;;;;;5.95;2.20;;;26.10;46.10;;;;;;6608166;26;78973;-61
2024/04/13 14:23:38;;;;;;;5.30;2.28;;;26.10;45.90;;;;;;6601437;26;81549;-61
2024/04/13 14:26:40;;;;;;;8.57;2.47;;;26.10;45.60;;;;;;6617605;26;80100;-59
2024/04/13 14:29:40;;;;;;;12.23;2.53;;;26.00;45.60;;;;;;6617077;26;78730;-59
2024/04/13 14:32:41;;;;;;;7.68;2.25;;;26.10;45.90;;;;;;6596115;26;78861;-60
2024/04/13 14:35:43;;;;;;;8.98;2.17;;;26.00;45.90;;;;;;6620811;26;81845;-60
2024/04/13 14:38:43;;;;;;;3.70;2.22;;;26.00;46.60;;;;;;6613502;26;79719;-59
2024/04/13 14:41:44;;;;;;;6.35;2.22;;;26.00;45.20;;;;;;6597555;26;83753;-60
2024/04/13 14:44:45;;;;;;;5.35;2.05;;;26.00;44.90;;;;;;6565832;26;79402;-65
2024/04/13 14:47:46;;;;;;;5.78;2.15;;;25.90;44.90;;;;;;6581658;26;79016;-68
2024/04/13 14:50:46;;;;;;;3.75;2.28;;;26.00;45.20;;;;;;6595861;26;78970;-62
2024/04/13 14:53:47;;;;;;;23.88;2.67;;;25.90;45.00;;;;;;6561837;26;81878;-63
2024/04/13 14:56:48;;;;;;;5.75;2.20;;;25.90;45.20;;;;;;6592855;26;80867;-62
2024/04/13 14:59:48;;;;;;;8.32;2.55;;;25.90;44.60;;;;;;6557502;26;81332;-62
2024/04/13 15:02:49;;;;;;;7.68;2.65;;;25.90;44.70;;;;;;6559737;26;82564;-74
2024/04/13 15:05:49;;;;;;;2.72;1.85;;;25.90;44.80;;;;;;6586681;26;78891;-77
2024/04/13 15:08:50;;;;;;;2.60;2.10;;;25.90;44.50;;;;;;6586599;26;79065;-76
2024/04/13 15:11:50;;;;;;;3.92;2.20;;;25.90;44.70;;;;;;6603861;26;80745;-74
2024/04/13 15:14:51;;;;;;;5.30;2.95;;;25.90;44.80;;;;;;6557265;26;81943;-78
2024/04/13 15:17:51;;;;;;;4.68;2.60;;;25.80;44.60;;;;;;6612882;26;79431;-75
2024/04/13 15:20:52;;;;;;;6.13;2.95;;;25.80;45.40;;;;;;6568703;26;80882;-77
2024/04/13 15:23:53;;;;;;;9.02;2.95;;;25.70;44.30;;;;;;6557786;26;79887;-75
2024/04/13 15:26:54;;;;;;;5.70;2.55;;;25.70;44.50;;;;;;6595114;26;78953;-75
2024/04/13 15:29:54;;;;;;;4.25;2.22;;;25.70;44.70;;;;;;6589067;26;78927;-77
2024/04/13 15:32:55;;;;;;;6.53;2.67;;;25.70;44.80;;;;;;6568130;26;78749;-72
2024/04/13 15:35:56;;;;;;;5.18;2.55;;;25.70;45.00;;;;;;6593542;26;78911;-74